createdAt,value
2023-08-25T00:01:19.562Z,98374.53
2023-08-25T00:03:46.618Z,98365.81
2023-08-25T00:06:13.296Z,98363.34
2023-08-25T00:08:40.068Z,98368.94
2023-08-25T00:11:06.906Z,98366.88
2023-08-25T00:13:36.760Z,98370.16
2023-08-25T00:16:06.405Z,98362.03
2023-08-25T00:18:33.823Z,98368.50
2023-08-25T00:21:00.789Z,98363.34
2023-08-25T00:23:27.586Z,98368.66
2023-08-25T00:25:54.610Z,98364.47
2023-08-25T00:28:21.699Z,98362.84
2023-08-25T00:30:49.756Z,98365.66
2023-08-25T00:33:16.522Z,98353.31
2023-08-25T00:35:43.809Z,98363.25
2023-08-25T00:38:10.511Z,98356.28
2023-08-25T00:40:38.451Z,98356.78
2023-08-25T00:43:05.293Z,98363.09
2023-08-25T00:45:36.714Z,98365.41
2023-08-25T00:48:03.934Z,98366.38
2023-08-25T00:50:31.374Z,98357.50
2023-08-25T00:52:58.697Z,98355.56
2023-08-25T00:55:25.663Z,98349.56
2023-08-25T00:57:54.650Z,98349.06
2023-08-25T01:00:21.701Z,98353.31
2023-08-25T01:02:48.472Z,98347.00
2023-08-25T01:05:15.506Z,98343.31
2023-08-25T01:07:44.435Z,98341.03
2023-08-25T01:10:12.581Z,98345.69
2023-08-25T01:13:10.184Z,98342.78
2023-08-25T01:15:39.541Z,98336.56
2023-08-25T01:18:17.241Z,98322.81
2023-08-25T01:20:50.378Z,98318.06
2023-08-25T01:23:19.995Z,98314.00
2023-08-25T01:25:49.147Z,98320.97
2023-08-25T01:28:15.784Z,98306.97
2023-08-25T01:30:42.680Z,98313.44
2023-08-25T01:33:09.484Z,98310.06
2023-08-25T01:36:11.368Z,98311.81
2023-08-25T01:38:48.294Z,98309.38
2023-08-25T01:41:25.102Z,98303.22
2023-08-25T01:43:54.158Z,98286.41
2023-08-25T01:46:23.156Z,98294.38
2023-08-25T01:48:54.181Z,98299.78
2023-08-25T01:51:21.420Z,98303.94
2023-08-25T01:53:56.017Z,98308.94
2023-08-25T01:56:23.375Z,98307.06
2023-08-25T01:58:50.688Z,98317.28
2023-08-25T02:01:17.432Z,98311.47
2023-08-25T02:03:44.506Z,98304.44
2023-08-25T02:06:11.509Z,98304.19
2023-08-25T02:08:38.743Z,98302.69
2023-08-25T02:11:05.665Z,98307.47
2023-08-25T02:13:32.538Z,98302.44
2023-08-25T02:15:59.256Z,98296.56
2023-08-25T02:18:26.046Z,98300.53
2023-08-25T02:20:55.524Z,98303.56
2023-08-25T02:23:22.171Z,98307.53
2023-08-25T02:25:48.856Z,98310.84
2023-08-25T02:28:15.539Z,98303.56
2023-08-25T02:30:42.354Z,98297.56
2023-08-25T02:33:08.976Z,98302.09
2023-08-25T02:35:35.567Z,98302.25
2023-08-25T02:38:12.013Z,98294.88
2023-08-25T02:40:39.130Z,98287.19
2023-08-25T02:43:07.263Z,98273.97
2023-08-25T02:45:34.935Z,98279.19
2023-08-25T02:48:02.770Z,98267.84
2023-08-25T02:50:29.623Z,98268.03
2023-08-25T02:52:57.744Z,98259.19
2023-08-25T02:55:24.491Z,98265.31
2023-08-25T02:57:52.497Z,98257.97
2023-08-25T03:00:22.915Z,98265.72
2023-08-25T03:02:50.475Z,98264.78
2023-08-25T03:05:17.815Z,98264.13
2023-08-25T03:07:44.722Z,98250.66
2023-08-25T03:10:11.891Z,98234.63
2023-08-25T03:12:39.264Z,98241.38
2023-08-25T03:15:06.829Z,98240.59
2023-08-25T03:17:34.109Z,98233.28
2023-08-25T03:20:00.808Z,98234.34
2023-08-25T03:22:27.475Z,98224.19
2023-08-25T03:24:54.143Z,98221.75
2023-08-25T03:27:20.800Z,98225.78
2023-08-25T03:29:47.924Z,98222.25
2023-08-25T03:32:14.573Z,98226.66
2023-08-25T03:34:43.104Z,98232.66
2023-08-25T03:37:09.992Z,98234.59
2023-08-25T03:39:36.785Z,98231.78
2023-08-25T03:42:03.740Z,98218.81
2023-08-25T03:44:30.381Z,98214.84
2023-08-25T03:46:59.182Z,98210.47
2023-08-25T03:49:29.095Z,98209.59
2023-08-25T03:51:56.145Z,98211.97
2023-08-25T03:54:22.819Z,98205.06
2023-08-25T03:56:49.458Z,98203.69
2023-08-25T03:59:16.083Z,98191.94
2023-08-25T04:01:42.697Z,98195.06
2023-08-25T04:04:09.382Z,98186.53
2023-08-25T04:06:36.046Z,98182.59
2023-08-25T04:09:02.708Z,98175.00
2023-08-25T04:11:29.303Z,98177.31
2023-08-25T04:13:55.918Z,98175.19
2023-08-25T04:16:22.611Z,98160.84
2023-08-25T04:18:49.567Z,98166.22
2023-08-25T04:21:16.185Z,98165.03
2023-08-25T04:23:43.230Z,98171.25
2023-08-25T04:26:09.834Z,98170.34
2023-08-25T04:28:36.464Z,98162.91
2023-08-25T04:31:03.264Z,98143.69
2023-08-25T04:33:30.669Z,98135.84
2023-08-25T04:35:58.277Z,98135.44
2023-08-25T04:38:24.918Z,98167.41
2023-08-25T04:40:51.527Z,98169.03
2023-08-25T04:43:18.146Z,98170.59
2023-08-25T04:45:44.761Z,98174.78
2023-08-25T04:48:11.442Z,98179.19
2023-08-25T04:50:39.955Z,98176.50
2023-08-25T04:53:06.581Z,98182.31
2023-08-25T04:55:33.181Z,98181.47
2023-08-25T04:57:59.786Z,98172.72
2023-08-25T05:00:26.494Z,98179.75
2023-08-25T05:02:54.388Z,98189.50
2023-08-25T05:05:21.075Z,98186.91
2023-08-25T05:07:48.411Z,98194.03
2023-08-25T05:10:15.245Z,98207.88
2023-08-25T05:12:41.866Z,98205.59
2023-08-25T05:15:09.878Z,98204.69
2023-08-25T05:17:37.347Z,98203.50
2023-08-25T05:20:06.052Z,98192.31
2023-08-25T05:22:32.692Z,98187.34
2023-08-25T05:24:59.379Z,98191.63
2023-08-25T05:27:26.384Z,98186.47
2023-08-25T05:29:53.278Z,98181.06
2023-08-25T05:32:19.981Z,98179.44
2023-08-25T05:34:46.616Z,98183.25
2023-08-25T05:37:13.246Z,98176.66
2023-08-25T05:39:39.967Z,98194.25
2023-08-25T05:42:08.978Z,98190.63
2023-08-25T05:44:36.383Z,98194.84
2023-08-25T05:47:04.496Z,98195.97
2023-08-25T05:49:31.164Z,98207.44
2023-08-25T05:51:57.783Z,98222.13
2023-08-25T05:54:24.580Z,98243.34
2023-08-25T05:56:51.222Z,98268.22
2023-08-25T05:59:17.865Z,98281.91
2023-08-25T06:01:44.568Z,98263.06
2023-08-25T06:04:11.284Z,98244.38
2023-08-25T06:06:39.524Z,98288.94
2023-08-25T06:09:06.601Z,98264.56
2023-08-25T06:11:33.285Z,98242.13
2023-08-25T06:13:59.926Z,98236.50
2023-08-25T06:16:27.916Z,98272.94
2023-08-25T06:18:54.781Z,98280.25
2023-08-25T06:21:21.441Z,98277.63
2023-08-25T06:23:48.051Z,98280.38
2023-08-25T06:26:15.036Z,98261.66
2023-08-25T06:28:41.676Z,98258.25
2023-08-25T06:31:09.757Z,98253.03
2023-08-25T06:33:36.577Z,98246.31
2023-08-25T06:36:03.415Z,98244.50
2023-08-25T06:38:34.418Z,98248.19
2023-08-25T06:41:05.975Z,98233.09
2023-08-25T06:43:32.639Z,98238.56
2023-08-25T06:45:59.569Z,98235.75
2023-08-25T06:48:26.264Z,98227.84
2023-08-25T06:50:53.309Z,98230.16
2023-08-25T06:53:22.687Z,98227.59
2023-08-25T06:55:49.783Z,98221.63
2023-08-25T06:58:16.569Z,98219.22
2023-08-25T07:00:43.204Z,98217.16
2023-08-25T07:03:09.900Z,98228.00
2023-08-25T07:05:39.177Z,98225.09
2023-08-25T07:08:07.088Z,98224.69
2023-08-25T07:10:34.415Z,98210.81
2023-08-25T07:13:01.426Z,98204.81
2023-08-25T07:15:28.238Z,98201.91
2023-08-25T07:17:55.482Z,98202.50
2023-08-25T07:20:22.894Z,98208.44
2023-08-25T07:22:50.239Z,98214.38
2023-08-25T07:25:17.020Z,98207.69
2023-08-25T07:27:43.623Z,98226.19
2023-08-25T07:30:10.466Z,98226.47
2023-08-25T07:32:37.136Z,98228.16
2023-08-25T07:35:05.319Z,98228.69
2023-08-25T07:37:32.007Z,98218.16
2023-08-25T07:39:58.671Z,98215.38
2023-08-25T07:42:25.433Z,98211.50
2023-08-25T07:44:55.181Z,98219.34
2023-08-25T07:47:21.816Z,98222.84
2023-08-25T07:49:48.452Z,98212.94
2023-08-25T07:52:15.172Z,98210.44
2023-08-25T07:54:41.836Z,98204.41
2023-08-25T07:57:08.594Z,98201.75
2023-08-25T07:59:35.832Z,98211.91
2023-08-25T08:02:03.919Z,98236.03
2023-08-25T08:04:32.630Z,98246.63
2023-08-25T08:07:01.591Z,98244.50
2023-08-25T08:09:28.323Z,98246.25
2023-08-25T08:11:55.190Z,98260.72
2023-08-25T08:14:28.650Z,98250.50
2023-08-25T08:17:04.190Z,98246.00
2023-08-25T08:19:30.867Z,98250.25
2023-08-25T08:21:58.568Z,98256.78
2023-08-25T08:24:35.583Z,98259.66
2023-08-25T08:27:11.840Z,98255.22
2023-08-25T08:29:38.463Z,98246.75
2023-08-25T08:32:06.737Z,98246.88
2023-08-25T08:34:33.343Z,98254.38
2023-08-25T08:37:00.078Z,98241.38
2023-08-25T08:39:28.689Z,98241.47
2023-08-25T08:41:58.887Z,98257.78
2023-08-25T08:44:28.536Z,98255.75
2023-08-25T08:46:57.611Z,98253.69
2023-08-25T08:49:27.298Z,98265.75
2023-08-25T08:51:56.758Z,98264.28
2023-08-25T08:54:26.708Z,98252.41
2023-08-25T08:56:55.105Z,98261.59
2023-08-25T08:59:22.015Z,98258.59
2023-08-25T09:01:50.113Z,98244.81
2023-08-25T09:04:23.511Z,98239.84
2023-08-25T09:06:52.153Z,98252.84
2023-08-25T09:09:20.957Z,98265.44
2023-08-25T09:11:49.355Z,98261.19
2023-08-25T09:14:30.359Z,98249.19
2023-08-25T09:17:00.961Z,98260.16
2023-08-25T09:19:32.561Z,98246.19
2023-08-25T09:22:00.204Z,98259.56
2023-08-25T09:24:27.439Z,98242.38
2023-08-25T09:26:54.095Z,98253.06
2023-08-25T09:29:23.802Z,98254.19
2023-08-25T09:31:50.445Z,98250.84
2023-08-25T09:34:17.261Z,98260.56
2023-08-25T09:36:55.797Z,98256.78
2023-08-25T09:39:24.101Z,98255.03
2023-08-25T09:41:51.384Z,98260.66
2023-08-25T09:44:18.730Z,98249.31
2023-08-25T09:46:46.244Z,98239.31
2023-08-25T09:49:15.324Z,98250.59
2023-08-25T09:51:46.700Z,98243.50
2023-08-25T09:54:17.433Z,98238.53
2023-08-25T09:56:47.113Z,98231.28
2023-08-25T09:59:15.918Z,98224.56
2023-08-25T10:01:46.913Z,98218.19
2023-08-25T10:04:14.390Z,98202.88
2023-08-25T10:06:41.907Z,98206.56
2023-08-25T10:09:10.103Z,98198.53
2023-08-25T10:11:41.332Z,98198.44
2023-08-25T10:14:13.806Z,98190.56
2023-08-25T10:16:52.662Z,98183.16
2023-08-25T10:19:30.213Z,98189.72
2023-08-25T10:22:02.708Z,98183.91
2023-08-25T10:24:35.892Z,98174.97
2023-08-25T10:27:03.229Z,98159.00
2023-08-25T10:29:33.614Z,98166.41
2023-08-25T10:32:05.091Z,98159.25
2023-08-25T10:34:43.858Z,98152.00
2023-08-25T10:37:14.575Z,98152.63
2023-08-25T10:40:00.749Z,98152.63
2023-08-25T10:42:31.216Z,98154.13
2023-08-25T10:45:05.779Z,98157.72
2023-08-25T10:47:33.151Z,98168.72
2023-08-25T10:50:05.102Z,98167.88
2023-08-25T10:52:32.608Z,98159.25
2023-08-25T10:55:26.789Z,98158.50
2023-08-25T10:58:01.612Z,98149.06
2023-08-25T11:00:37.481Z,98148.97
2023-08-25T11:03:05.897Z,98124.81
2023-08-25T11:05:35.820Z,98139.34
2023-08-25T11:08:04.367Z,98137.19
2023-08-25T11:10:36.812Z,98125.53
2023-08-25T11:13:10.787Z,98125.44
2023-08-25T11:15:40.019Z,98132.31
2023-08-25T11:18:10.061Z,98129.41
2023-08-25T11:20:45.412Z,98148.31
2023-08-25T11:23:20.001Z,98143.75
2023-08-25T11:25:47.729Z,98150.56
2023-08-25T11:28:14.403Z,98150.66
2023-08-25T11:30:41.536Z,98154.13
2023-08-25T11:33:09.914Z,98144.88
2023-08-25T11:35:36.592Z,98161.28
2023-08-25T11:38:03.437Z,98157.66
2023-08-25T11:40:31.217Z,98153.53
2023-08-25T11:42:57.947Z,98153.47
2023-08-25T11:45:30.840Z,98164.59
2023-08-25T11:47:58.099Z,98175.38
2023-08-25T11:50:26.437Z,98189.97
2023-08-25T11:52:57.441Z,98200.53
2023-08-25T11:55:35.782Z,98180.53
2023-08-25T11:58:10.258Z,98158.72
2023-08-25T12:00:39.343Z,98160.44
2023-08-25T12:03:07.291Z,98151.72
2023-08-25T12:05:36.335Z,98155.94
2023-08-25T12:08:04.013Z,98153.84
2023-08-25T12:10:40.092Z,98167.06
2023-08-25T12:13:06.815Z,98159.19
2023-08-25T12:15:46.453Z,98147.06
2023-08-25T12:18:14.299Z,98152.81
2023-08-25T12:20:45.611Z,98167.03
2023-08-25T12:23:12.536Z,98167.69
2023-08-25T12:25:43.559Z,98160.09
2023-08-25T12:28:11.950Z,98155.63
2023-08-25T12:30:39.230Z,98156.28
2023-08-25T12:33:06.916Z,98145.13
2023-08-25T12:35:33.816Z,98145.09
2023-08-25T12:38:00.551Z,98151.88
2023-08-25T12:40:27.316Z,98161.50
2023-08-25T12:42:56.196Z,98168.88
2023-08-25T12:45:24.659Z,98150.34
2023-08-25T12:47:53.110Z,98160.56
2023-08-25T12:50:20.190Z,98165.78
2023-08-25T12:52:48.582Z,98166.53
2023-08-25T12:55:21.422Z,98164.91
2023-08-25T12:57:54.480Z,98166.78
2023-08-25T13:00:21.772Z,98160.38
2023-08-25T13:02:50.691Z,98156.63
2023-08-25T13:05:19.378Z,98139.91
2023-08-25T13:07:46.048Z,98139.44
2023-08-25T13:10:12.767Z,98131.50
2023-08-25T13:12:39.459Z,98127.22
2023-08-25T13:15:11.039Z,98125.78
2023-08-25T13:17:37.785Z,98131.59
2023-08-25T13:20:06.746Z,98140.28
2023-08-25T13:22:33.386Z,98138.88
2023-08-25T13:25:01.413Z,98135.97
2023-08-25T13:27:28.555Z,98146.13
2023-08-25T13:29:55.446Z,98142.47
2023-08-25T13:32:23.053Z,98144.66
2023-08-25T13:34:49.737Z,98146.16
2023-08-25T13:37:18.104Z,98147.63
2023-08-25T13:39:44.809Z,98154.13
2023-08-25T13:42:11.543Z,98157.75
2023-08-25T13:44:39.709Z,98152.00
2023-08-25T13:47:10.786Z,98157.81
2023-08-25T13:49:38.624Z,98156.38
2023-08-25T13:52:05.652Z,98147.59
2023-08-25T13:54:33.649Z,98137.44
2023-08-25T13:57:00.705Z,98130.16
2023-08-25T13:59:28.117Z,98124.34
2023-08-25T14:01:55.078Z,98109.69
2023-08-25T14:04:21.866Z,98114.00
2023-08-25T14:06:48.602Z,98127.69
2023-08-25T14:09:15.493Z,98128.47
2023-08-25T14:11:42.284Z,98129.75
2023-08-25T14:14:09.046Z,98144.16
2023-08-25T14:16:36.386Z,98150.34
2023-08-25T14:19:03.281Z,98158.25
2023-08-25T14:21:30.006Z,98151.47
2023-08-25T14:24:00.214Z,98148.75
2023-08-25T14:26:28.563Z,98149.03
2023-08-25T14:28:55.457Z,98140.28
2023-08-25T14:31:22.397Z,98135.94
2023-08-25T14:33:49.441Z,98128.53
2023-08-25T14:36:16.092Z,98130.00
2023-08-25T14:38:42.854Z,98141.03
2023-08-25T14:41:09.558Z,98141.78
2023-08-25T14:43:36.212Z,98153.44
2023-08-25T14:46:04.686Z,98144.59
2023-08-25T14:48:31.646Z,98146.03
2023-08-25T14:51:00.761Z,98141.75
2023-08-25T14:53:27.782Z,98135.03
2023-08-25T14:55:54.947Z,98134.75
2023-08-25T14:58:23.154Z,98140.00
2023-08-25T15:00:56.535Z,98145.69
2023-08-25T15:03:24.415Z,98147.56
2023-08-25T15:05:58.461Z,98140.28
2023-08-25T15:08:26.260Z,98144.59
2023-08-25T15:10:53.221Z,98160.66
2023-08-25T15:13:20.141Z,98159.25
2023-08-25T15:15:47.530Z,98149.06
2023-08-25T15:18:14.306Z,98150.53
2023-08-25T15:20:41.248Z,98128.69
2023-08-25T15:23:08.106Z,98124.31
2023-08-25T15:25:34.866Z,98130.88
2023-08-25T15:28:01.530Z,98147.59
2023-08-25T15:30:28.233Z,98132.31
2023-08-25T15:32:55.070Z,98128.66
2023-08-25T15:35:23.248Z,98142.41
2023-08-25T15:37:50.023Z,98151.78
2023-08-25T15:40:19.117Z,98154.63
2023-08-25T15:42:45.731Z,98153.22
2023-08-25T15:45:12.380Z,98161.97
2023-08-25T15:47:39.110Z,98151.81
2023-08-25T15:50:07.283Z,98148.88
2023-08-25T15:52:33.915Z,98135.78
2023-08-25T15:55:01.126Z,98133.63
2023-08-25T15:57:42.152Z,98111.09
2023-08-25T16:00:10.984Z,98119.84
2023-08-25T16:02:37.728Z,98125.66
2023-08-25T16:05:05.999Z,98109.00
2023-08-25T16:07:32.695Z,98117.00
2023-08-25T16:09:59.329Z,98116.28
2023-08-25T16:12:25.959Z,98117.03
2023-08-25T16:14:52.645Z,98118.50
2023-08-25T16:17:19.264Z,98117.03
2023-08-25T16:19:45.932Z,98109.78
2023-08-25T16:22:12.567Z,98115.47
2023-08-25T16:24:39.193Z,98092.19
2023-08-25T16:27:05.887Z,98096.66
2023-08-25T16:29:32.584Z,98096.63
2023-08-25T16:31:59.240Z,98088.56
2023-08-25T16:34:28.380Z,98084.97
2023-08-25T16:37:01.566Z,98092.25
2023-08-25T16:39:28.227Z,98093.75
2023-08-25T16:41:54.852Z,98095.22
2023-08-25T16:44:21.499Z,98095.22
2023-08-25T16:46:48.208Z,98106.84
2023-08-25T16:49:15.092Z,98097.41
2023-08-25T16:51:41.800Z,98090.88
2023-08-25T16:54:09.351Z,98099.47
2023-08-25T16:56:36.161Z,98093.63
2023-08-25T16:59:03.728Z,98092.09
2023-08-25T17:01:30.364Z,98100.63
2023-08-25T17:03:57.346Z,98089.78
2023-08-25T17:06:24.455Z,98100.53
2023-08-25T17:08:52.563Z,98100.53
2023-08-25T17:11:19.267Z,98102.72
2023-08-25T17:13:45.912Z,98106.28
2023-08-25T17:16:13.906Z,98109.16
2023-08-25T17:18:41.312Z,98109.09
2023-08-25T17:21:08.011Z,98107.53
2023-08-25T17:23:34.696Z,98106.84
2023-08-25T17:26:01.706Z,98104.59
2023-08-25T17:28:28.472Z,98103.91
2023-08-25T17:31:09.313Z,98097.22
2023-08-25T17:33:38.270Z,98104.31
2023-08-25T17:36:15.195Z,98107.88
2023-08-25T17:38:41.950Z,98103.91
2023-08-25T17:41:11.753Z,98104.06
2023-08-25T17:43:39.953Z,98107.81
2023-08-25T17:46:08.415Z,98102.09
2023-08-25T17:48:35.508Z,98101.16
2023-08-25T17:51:02.190Z,98104.69
2023-08-25T17:53:29.739Z,98113.50
2023-08-25T17:55:57.179Z,98126.53
2023-08-25T17:58:24.323Z,98116.19
2023-08-25T18:01:01.271Z,98118.19
2023-08-25T18:03:28.196Z,98137.59
2023-08-25T18:05:54.986Z,98130.88
2023-08-25T18:08:21.812Z,98135.16
2023-08-25T18:10:48.825Z,98129.41
2023-08-25T18:13:15.504Z,98130.03
2023-08-25T18:15:42.165Z,98117.94
2023-08-25T18:18:08.872Z,98123.03
2023-08-25T18:20:36.134Z,98132.28
2023-08-25T18:23:03.572Z,98132.09
2023-08-25T18:25:30.329Z,98129.22
2023-08-25T18:27:56.991Z,98117.63
2023-08-25T18:30:26.536Z,98098.75
2023-08-25T18:32:53.923Z,98103.09
2023-08-25T18:35:20.818Z,98080.84
2023-08-25T18:37:47.463Z,98086.28
2023-08-25T18:40:14.197Z,98083.88
2023-08-25T18:42:40.843Z,98072.00
2023-08-25T18:45:08.167Z,98080.03
2023-08-25T18:47:34.958Z,98100.72
2023-08-25T18:50:01.775Z,98123.47
2023-08-25T18:52:28.466Z,98129.78
2023-08-25T18:54:55.147Z,98119.47
2023-08-25T18:57:26.210Z,98113.50
2023-08-25T18:59:53.886Z,98105.34
2023-08-25T19:02:21.701Z,98115.25
2023-08-25T19:04:48.830Z,98113.03
2023-08-25T19:07:15.513Z,98122.75
2023-08-25T19:09:47.588Z,98134.31
2023-08-25T19:12:15.987Z,98133.06
2023-08-25T19:14:43.235Z,98130.22
2023-08-25T19:17:09.860Z,98131.03
2023-08-25T19:19:38.957Z,98122.53
2023-08-25T19:22:07.148Z,98130.97
2023-08-25T19:24:34.121Z,98140.47
2023-08-25T19:27:02.445Z,98133.75
2023-08-25T19:29:30.154Z,98125.28
2023-08-25T19:31:58.472Z,98135.19
2023-08-25T19:34:25.128Z,98130.56
2023-08-25T19:36:52.821Z,98132.81
2023-08-25T19:39:19.526Z,98143.31
2023-08-25T19:41:48.627Z,98148.19
2023-08-25T19:44:15.275Z,98142.41
2023-08-25T19:46:41.960Z,98132.94
2023-08-25T19:49:08.658Z,98131.69
2023-08-25T19:51:35.387Z,98141.22
2023-08-25T19:54:02.012Z,98140.31
2023-08-25T19:56:29.509Z,98144.34
2023-08-25T19:58:56.440Z,98139.66
2023-08-25T20:01:23.188Z,98142.66
2023-08-25T20:03:49.978Z,98150.75
2023-08-25T20:06:16.734Z,98137.94
2023-08-25T20:08:43.393Z,98138.19
2023-08-25T20:11:10.383Z,98135.56
2023-08-25T20:13:37.445Z,98135.25
2023-08-25T20:16:04.642Z,98140.88
2023-08-25T20:18:31.527Z,98145.72
2023-08-25T20:20:58.950Z,98132.31
2023-08-25T20:23:25.820Z,98138.63
2023-08-25T20:25:56.061Z,98135.09
2023-08-25T20:28:23.383Z,98126.63
2023-08-25T20:30:50.523Z,98123.78
2023-08-25T20:33:18.241Z,98117.22
2023-08-25T20:35:46.052Z,98125.88
2023-08-25T20:38:14.659Z,98123.78
2023-08-25T20:40:45.202Z,98132.09
2023-08-25T20:43:13.320Z,98141.03
2023-08-25T20:45:45.741Z,98148.69
2023-08-25T20:48:12.897Z,98148.28
2023-08-25T20:50:40.080Z,98152.38
2023-08-25T20:53:06.779Z,98145.91
2023-08-25T20:55:33.487Z,98146.81
2023-08-25T20:58:00.130Z,98137.50
2023-08-25T21:00:28.547Z,98143.28
2023-08-25T21:02:55.860Z,98142.41
2023-08-25T21:05:22.819Z,98143.28
2023-08-25T21:07:51.196Z,98135.34
2023-08-25T21:10:17.820Z,98132.31
2023-08-25T21:12:44.469Z,98144.78
2023-08-25T21:15:11.132Z,98137.19
2023-08-25T21:17:37.814Z,98125.13
2023-08-25T21:20:05.259Z,98127.53
2023-08-25T21:22:31.898Z,98110.25
2023-08-25T21:24:58.605Z,98114.00
2023-08-25T21:27:25.970Z,98112.63
2023-08-25T21:29:52.607Z,98116.25
2023-08-25T21:32:19.393Z,98126.31
2023-08-25T21:34:46.055Z,98130.88
2023-08-25T21:37:12.690Z,98118.97
2023-08-25T21:39:39.338Z,98134.38
2023-08-25T21:42:06.088Z,98141.31
2023-08-25T21:44:33.147Z,98143.09
2023-08-25T21:46:59.797Z,98148.28
2023-08-25T21:49:26.454Z,98147.03
2023-08-25T21:51:53.295Z,98155.25
2023-08-25T21:54:19.948Z,98148.56
2023-08-25T21:56:46.609Z,98151.22
2023-08-25T21:59:13.228Z,98170.63
2023-08-25T22:01:39.898Z,98182.22
2023-08-25T22:04:07.572Z,98184.41
2023-08-25T22:06:37.806Z,98175.00
2023-08-25T22:09:05.880Z,98161.03
2023-08-25T22:11:32.596Z,98156.00
2023-08-25T22:14:00.037Z,98143.78
2023-08-25T22:16:26.797Z,98137.63
2023-08-25T22:18:53.427Z,98129.78
2023-08-25T22:21:20.120Z,98122.94
2023-08-25T22:23:47.099Z,98130.13
2023-08-25T22:26:13.737Z,98139.66
2023-08-25T22:28:40.380Z,98153.31
2023-08-25T22:31:07.061Z,98136.47
2023-08-25T22:36:03.904Z,98143.78
2023-08-25T22:38:30.541Z,98130.00
2023-08-25T22:40:57.179Z,98135.88
2023-08-25T22:43:24.022Z,98141.38
2023-08-25T22:45:50.835Z,98139.22
2023-08-25T22:48:17.828Z,98142.38
2023-08-25T22:50:46.085Z,98137.34
2023-08-25T22:53:12.765Z,98131.75
2023-08-25T22:55:43.220Z,98128.69
2023-08-25T22:58:10.029Z,98121.16
2023-08-25T23:00:37.076Z,98128.47
2023-08-25T23:03:04.920Z,98133.25
2023-08-25T23:05:38.853Z,98130.06
2023-08-25T23:08:06.255Z,98119.22
2023-08-25T23:10:40.388Z,98119.34
2023-08-25T23:13:08.697Z,98134.19
2023-08-25T23:15:36.308Z,98128.75
2023-08-25T23:18:04.932Z,98124.09
2023-08-25T23:20:32.169Z,98113.88
2023-08-25T23:22:58.828Z,98114.59
2023-08-25T23:25:25.467Z,98131.13
2023-08-25T23:27:52.210Z,98144.06
2023-08-25T23:30:18.976Z,98144.78
2023-08-25T23:32:46.658Z,98149.19
2023-08-25T23:35:13.311Z,98157.38
2023-08-25T23:37:39.977Z,98160.50
2023-08-25T23:40:08.540Z,98167.91
2023-08-25T23:42:35.306Z,98163.66
2023-08-25T23:45:02.535Z,98165.13
2023-08-25T23:47:29.196Z,98165.31
2023-08-25T23:49:56.101Z,98161.69
2023-08-25T23:52:22.963Z,98166.97
2023-08-25T23:54:49.623Z,98167.09
2023-08-25T23:57:19.569Z,98151.69
2023-08-25T23:59:46.613Z,98167.53
